aviador You're here:

K2W6 Decoded Metar

CAPT DUKE RGNL in MD, USA
Report Time2017-04-29 17:21:00
UTC Time2017-04-29 17:46:15
Flight Rules vfr VFR
Wind230° at 08 Gusting to 15 kt
W.Rank230° ranks 4
Current wind is above 230° avg. (6.7)
Visibility9999 m
Phenomena:N/A
Clouds:N/A
Expected CloudBase > 3,600 ft AGL from Temp-Dew spread
CeilingNone
Temp29°C (ISA +14)
Dew Point20°C (58% RH)
Heat Index30.7°C
QNH1019 hPa
Density Alt1,893 ft
Elevation144 ft
Report Wrong Elevation
Raw Report
K2W6 291721Z AUTO 23008G15KT 190V250 10SM CLR 29/20 A3009 RMK
AO1=

Extra information for K2W6:More info

Metar Taf Metar & Taf Last 4 Metars F.Rules Stats Wind Profile Meteogram Temp Stats Airport Information Weather charts Add Link Nearby VenuesMetar ALERT Operation Metar Decoded Social comments

AIRNAV info for K2W6